sensor_id;sensor_type;location;lat;lon;timestamp;temperature;humidity
56861;DHT22;42744;51.094;3.490;2022-10-13T00:01:54;12.80;99.90
56861;DHT22;42744;51.094;3.490;2022-10-13T00:04:20;12.80;99.90
56861;DHT22;42744;51.094;3.490;2022-10-13T00:06:46;12.70;99.90
56861;DHT22;42744;51.094;3.490;2022-10-13T00:09:12;12.70;99.90
56861;DHT22;42744;51.094;3.490;2022-10-13T00:11:38;12.70;99.90
56861;DHT22;42744;51.094;3.490;2022-10-13T00:14:05;12.70;99.90
56861;DHT22;42744;51.094;3.490;2022-10-13T00:16:34;12.70;99.90
56861;DHT22;42744;51.094;3.490;2022-10-13T00:19:00;12.70;99.90
56861;DHT22;42744;51.094;3.490;2022-10-13T00:21:27;12.70;99.90
56861;DHT22;42744;51.094;3.490;2022-10-13T00:23:54;12.70;99.90
56861;DHT22;42744;51.094;3.490;2022-10-13T00:26:23;12.60;99.90
56861;DHT22;42744;51.094;3.490;2022-10-13T00:28:49;12.60;99.90
56861;DHT22;42744;51.094;3.490;2022-10-13T00:31:20;12.60;99.90
56861;DHT22;42744;51.094;3.490;2022-10-13T00:33:47;12.60;99.90
56861;DHT22;42744;51.094;3.490;2022-10-13T00:36:15;12.60;99.90
56861;DHT22;42744;51.094;3.490;2022-10-13T00:38:42;12.60;99.90
56861;DHT22;42744;51.094;3.490;2022-10-13T00:41:08;12.60;99.90
56861;DHT22;42744;51.094;3.490;2022-10-13T00:43:57;12.60;99.90
56861;DHT22;42744;51.094;3.490;2022-10-13T00:46:27;12.60;99.90
56861;DHT22;42744;51.094;3.490;2022-10-13T00:48:57;12.60;99.90
56861;DHT22;42744;51.094;3.490;2022-10-13T00:51:29;12.60;99.90
56861;DHT22;42744;51.094;3.490;2022-10-13T00:53:57;12.60;99.90
56861;DHT22;42744;51.094;3.490;2022-10-13T00:56:25;12.50;99.90
56861;DHT22;42744;51.094;3.490;2022-10-13T00:58:52;12.60;99.90
56861;DHT22;42744;51.094;3.490;2022-10-13T01:01:19;12.50;99.90
56861;DHT22;42744;51.094;3.490;2022-10-13T01:03:45;12.50;99.90
56861;DHT22;42744;51.094;3.490;2022-10-13T01:06:11;12.50;99.90
56861;DHT22;42744;51.094;3.490;2022-10-13T01:08:38;12.50;99.90
56861;DHT22;42744;51.094;3.490;2022-10-13T01:33:58;12.60;99.90
56861;DHT22;42744;51.094;3.490;2022-10-13T01:36:45;12.60;99.90
56861;DHT22;42744;51.094;3.490;2022-10-13T01:39:22;12.60;99.90
56861;DHT22;42744;51.094;3.490;2022-10-13T01:41:53;12.70;99.90
56861;DHT22;42744;51.094;3.490;2022-10-13T01:44:31;12.70;99.90
56861;DHT22;42744;51.094;3.490;2022-10-13T01:46:59;12.70;99.90
56861;DHT22;42744;51.094;3.490;2022-10-13T01:49:30;12.70;99.90
56861;DHT22;42744;51.094;3.490;2022-10-13T01:52:00;12.70;99.90
56861;DHT22;42744;51.094;3.490;2022-10-13T01:54:27;12.70;99.90
56861;DHT22;42744;51.094;3.490;2022-10-13T01:56:56;12.70;99.90
56861;DHT22;42744;51.094;3.490;2022-10-13T01:59:23;12.80;99.90
56861;DHT22;42744;51.094;3.490;2022-10-13T02:02:06;12.80;99.90
56861;DHT22;42744;51.094;3.490;2022-10-13T02:04:47;12.80;99.90
56861;DHT22;42744;51.094;3.490;2022-10-13T02:07:27;12.80;99.90
56861;DHT22;42744;51.094;3.490;2022-10-13T02:10:00;12.80;99.90
56861;DHT22;42744;51.094;3.490;2022-10-13T02:12:52;12.80;99.90
56861;DHT22;42744;51.094;3.490;2022-10-13T02:15:24;12.80;99.90
56861;DHT22;42744;51.094;3.490;2022-10-13T02:17:52;12.80;99.90
56861;DHT22;42744;51.094;3.490;2022-10-13T02:20:19;12.80;99.90
56861;DHT22;42744;51.094;3.490;2022-10-13T02:22:51;12.90;99.90
56861;DHT22;42744;51.094;3.490;2022-10-13T02:25:20;12.90;99.90
56861;DHT22;42744;51.094;3.490;2022-10-13T02:27:48;12.80;99.90
56861;DHT22;42744;51.094;3.490;2022-10-13T02:30:24;12.80;99.90
56861;DHT22;42744;51.094;3.490;2022-10-13T02:32:50;12.80;99.90
56861;DHT22;42744;51.094;3.490;2022-10-13T02:35:16;12.80;99.90
56861;DHT22;42744;51.094;3.490;2022-10-13T02:37:42;12.60;99.90
56861;DHT22;42744;51.094;3.490;2022-10-13T02:40:09;12.60;99.90
56861;DHT22;42744;51.094;3.490;2022-10-13T02:42:35;12.60;99.90
56861;DHT22;42744;51.094;3.490;2022-10-13T02:45:01;12.50;99.90
56861;DHT22;42744;51.094;3.490;2022-10-13T02:47:27;12.50;99.90
56861;DHT22;42744;51.094;3.490;2022-10-13T02:49:54;12.50;99.90
56861;DHT22;42744;51.094;3.490;2022-10-13T02:52:19;12.50;99.90
56861;DHT22;42744;51.094;3.490;2022-10-13T02:54:47;12.50;99.90
56861;DHT22;42744;51.094;3.490;2022-10-13T02:57:12;12.50;99.90
56861;DHT22;42744;51.094;3.490;2022-10-13T02:59:42;12.50;99.90
56861;DHT22;42744;51.094;3.490;2022-10-13T03:02:08;12.40;99.90
56861;DHT22;42744;51.094;3.490;2022-10-13T03:04:34;12.40;99.90
56861;DHT22;42744;51.094;3.490;2022-10-13T03:07:01;12.40;99.90
56861;DHT22;42744;51.094;3.490;2022-10-13T03:09:28;12.40;99.90
56861;DHT22;42744;51.094;3.490;2022-10-13T03:11:53;12.40;99.90
56861;DHT22;42744;51.094;3.490;2022-10-13T03:14:19;12.40;99.90
56861;DHT22;42744;51.094;3.490;2022-10-13T03:16:45;12.40;99.90
56861;DHT22;42744;51.094;3.490;2022-10-13T03:19:12;12.40;99.90
56861;DHT22;42744;51.094;3.490;2022-10-13T03:21:38;12.40;99.90
56861;DHT22;42744;51.094;3.490;2022-10-13T03:24:04;12.40;99.90
56861;DHT22;42744;51.094;3.490;2022-10-13T03:26:31;12.40;99.90
56861;DHT22;42744;51.094;3.490;2022-10-13T03:28:57;12.40;99.90
56861;DHT22;42744;51.094;3.490;2022-10-13T03:31:23;12.30;99.90
56861;DHT22;42744;51.094;3.490;2022-10-13T03:33:49;12.30;99.90
56861;DHT22;42744;51.094;3.490;2022-10-13T03:36:16;12.40;99.90
56861;DHT22;42744;51.094;3.490;2022-10-13T03:38:45;12.30;99.90
56861;DHT22;42744;51.094;3.490;2022-10-13T03:41:16;12.40;99.90
56861;DHT22;42744;51.094;3.490;2022-10-13T03:43:44;12.40;99.90
56861;DHT22;42744;51.094;3.490;2022-10-13T03:46:11;12.30;99.90
56861;DHT22;42744;51.094;3.490;2022-10-13T03:48:39;12.40;99.90
56861;DHT22;42744;51.094;3.490;2022-10-13T03:51:07;12.30;99.90
56861;DHT22;42744;51.094;3.490;2022-10-13T03:53:33;12.30;99.90
56861;DHT22;42744;51.094;3.490;2022-10-13T03:56:00;12.40;99.90
56861;DHT22;42744;51.094;3.490;2022-10-13T03:58:26;12.40;99.90
56861;DHT22;42744;51.094;3.490;2022-10-13T04:00:56;12.30;99.90
56861;DHT22;42744;51.094;3.490;2022-10-13T04:03:22;12.30;99.90
56861;DHT22;42744;51.094;3.490;2022-10-13T04:05:49;12.30;99.90
56861;DHT22;42744;51.094;3.490;2022-10-13T04:08:15;12.30;99.90
56861;DHT22;42744;51.094;3.490;2022-10-13T04:10:41;12.30;99.90
56861;DHT22;42744;51.094;3.490;2022-10-13T04:13:07;12.30;99.90
56861;DHT22;42744;51.094;3.490;2022-10-13T04:15:37;12.20;99.90
56861;DHT22;42744;51.094;3.490;2022-10-13T04:18:04;12.30;99.90
56861;DHT22;42744;51.094;3.490;2022-10-13T04:20:30;12.30;99.90
56861;DHT22;42744;51.094;3.490;2022-10-13T04:22:56;12.20;99.90
56861;DHT22;42744;51.094;3.490;2022-10-13T04:25:22;12.20;99.90
56861;DHT22;42744;51.094;3.490;2022-10-13T04:27:47;12.20;99.90
56861;DHT22;42744;51.094;3.490;2022-10-13T04:30:14;12.20;99.90
56861;DHT22;42744;51.094;3.490;2022-10-13T04:32:40;12.20;99.90
56861;DHT22;42744;51.094;3.490;2022-10-13T04:35:06;12.10;99.90
56861;DHT22;42744;51.094;3.490;2022-10-13T04:37:32;12.10;99.90
56861;DHT22;42744;51.094;3.490;2022-10-13T04:39:58;12.10;99.90
56861;DHT22;42744;51.094;3.490;2022-10-13T04:42:24;12.10;99.90
56861;DHT22;42744;51.094;3.490;2022-10-13T04:44:50;12.10;99.90
56861;DHT22;42744;51.094;3.490;2022-10-13T04:47:20;12.10;99.90
56861;DHT22;42744;51.094;3.490;2022-10-13T04:49:45;12.10;99.90
56861;DHT22;42744;51.094;3.490;2022-10-13T04:52:11;12.10;99.90
56861;DHT22;42744;51.094;3.490;2022-10-13T04:54:37;12.00;99.90
56861;DHT22;42744;51.094;3.490;2022-10-13T04:57:03;12.10;99.90
56861;DHT22;42744;51.094;3.490;2022-10-13T04:59:29;12.10;99.90
56861;DHT22;42744;51.094;3.490;2022-10-13T05:01:55;12.10;99.90
56861;DHT22;42744;51.094;3.490;2022-10-13T05:04:21;12.10;99.90
56861;DHT22;42744;51.094;3.490;2022-10-13T05:06:47;12.10;99.90
56861;DHT22;42744;51.094;3.490;2022-10-13T05:09:14;12.00;99.90
56861;DHT22;42744;51.094;3.490;2022-10-13T05:11:43;12.00;99.90
56861;DHT22;42744;51.094;3.490;2022-10-13T05:14:08;12.00;99.90
56861;DHT22;42744;51.094;3.490;2022-10-13T05:16:35;12.00;99.90
56861;DHT22;42744;51.094;3.490;2022-10-13T05:19:01;12.00;99.90
56861;DHT22;42744;51.094;3.490;2022-10-13T05:21:28;12.00;99.90
56861;DHT22;42744;51.094;3.490;2022-10-13T05:23:55;12.00;99.90
56861;DHT22;42744;51.094;3.490;2022-10-13T05:26:23;12.00;99.90
56861;DHT22;42744;51.094;3.490;2022-10-13T05:28:57;12.00;99.90
56861;DHT22;42744;51.094;3.490;2022-10-13T05:31:28;12.00;99.90
56861;DHT22;42744;51.094;3.490;2022-10-13T05:33:56;12.00;99.90
56861;DHT22;42744;51.094;3.490;2022-10-13T05:36:30;12.00;99.90
56861;DHT22;42744;51.094;3.490;2022-10-13T05:38:59;12.00;99.90
56861;DHT22;42744;51.094;3.490;2022-10-13T05:41:26;12.00;99.90
56861;DHT22;42744;51.094;3.490;2022-10-13T05:43:54;12.00;99.90
56861;DHT22;42744;51.094;3.490;2022-10-13T05:46:22;12.00;99.90
56861;DHT22;42744;51.094;3.490;2022-10-13T05:48:48;12.00;99.90
56861;DHT22;42744;51.094;3.490;2022-10-13T05:51:18;12.00;99.90
56861;DHT22;42744;51.094;3.490;2022-10-13T05:53:49;11.90;99.90
56861;DHT22;42744;51.094;3.490;2022-10-13T05:56:20;12.00;99.90
56861;DHT22;42744;51.094;3.490;2022-10-13T05:58:58;12.00;99.90
56861;DHT22;42744;51.094;3.490;2022-10-13T06:01:27;12.00;99.90
56861;DHT22;42744;51.094;3.490;2022-10-13T06:04:02;12.00;99.90
56861;DHT22;42744;51.094;3.490;2022-10-13T06:06:34;12.00;99.90
56861;DHT22;42744;51.094;3.490;2022-10-13T06:09:01;11.90;99.90
56861;DHT22;42744;51.094;3.490;2022-10-13T06:11:27;11.90;99.90
56861;DHT22;42744;51.094;3.490;2022-10-13T06:13:53;11.90;99.90
56861;DHT22;42744;51.094;3.490;2022-10-13T06:16:19;11.90;99.90
56861;DHT22;42744;51.094;3.490;2022-10-13T06:18:45;11.80;99.90
56861;DHT22;42744;51.094;3.490;2022-10-13T06:21:11;11.90;99.90
56861;DHT22;42744;51.094;3.490;2022-10-13T06:23:38;11.80;99.90
56861;DHT22;42744;51.094;3.490;2022-10-13T06:26:05;11.80;99.90
56861;DHT22;42744;51.094;3.490;2022-10-13T06:28:32;11.80;99.90
56861;DHT22;42744;51.094;3.490;2022-10-13T06:30:58;11.80;99.90
56861;DHT22;42744;51.094;3.490;2022-10-13T06:33:24;11.80;99.90
56861;DHT22;42744;51.094;3.490;2022-10-13T06:35:51;11.80;99.90
56861;DHT22;42744;51.094;3.490;2022-10-13T06:38:18;11.80;99.90
56861;DHT22;42744;51.094;3.490;2022-10-13T06:40:47;11.80;99.90
56861;DHT22;42744;51.094;3.490;2022-10-13T06:43:13;11.80;99.90
56861;DHT22;42744;51.094;3.490;2022-10-13T06:45:39;11.80;99.90
56861;DHT22;42744;51.094;3.490;2022-10-13T06:48:05;11.80;99.90
56861;DHT22;42744;51.094;3.490;2022-10-13T06:50:31;11.90;99.90
56861;DHT22;42744;51.094;3.490;2022-10-13T06:52:57;11.90;99.90
56861;DHT22;42744;51.094;3.490;2022-10-13T06:55:23;11.90;99.90
56861;DHT22;42744;51.094;3.490;2022-10-13T06:57:49;11.90;99.90
56861;DHT22;42744;51.094;3.490;2022-10-13T07:00:15;12.00;99.90
56861;DHT22;42744;51.094;3.490;2022-10-13T07:02:42;12.00;99.90
56861;DHT22;42744;51.094;3.490;2022-10-13T07:05:08;12.00;99.90
56861;DHT22;42744;51.094;3.490;2022-10-13T07:07:35;12.00;99.90
56861;DHT22;42744;51.094;3.490;2022-10-13T07:10:01;12.00;99.90
56861;DHT22;42744;51.094;3.490;2022-10-13T07:12:26;12.00;99.90
56861;DHT22;42744;51.094;3.490;2022-10-13T07:14:53;12.00;99.90
56861;DHT22;42744;51.094;3.490;2022-10-13T07:17:18;12.00;99.90
56861;DHT22;42744;51.094;3.490;2022-10-13T07:19:44;12.10;99.90
56861;DHT22;42744;51.094;3.490;2022-10-13T07:22:13;12.10;99.90
56861;DHT22;42744;51.094;3.490;2022-10-13T07:24:39;12.10;99.90
56861;DHT22;42744;51.094;3.490;2022-10-13T07:27:05;12.10;99.90
56861;DHT22;42744;51.094;3.490;2022-10-13T07:29:31;12.10;99.90
56861;DHT22;42744;51.094;3.490;2022-10-13T07:31:57;12.10;99.90
56861;DHT22;42744;51.094;3.490;2022-10-13T07:34:23;12.20;99.90
56861;DHT22;42744;51.094;3.490;2022-10-13T07:36:49;12.10;99.90
56861;DHT22;42744;51.094;3.490;2022-10-13T07:39:15;12.20;99.90
56861;DHT22;42744;51.094;3.490;2022-10-13T07:41:41;12.20;99.90
56861;DHT22;42744;51.094;3.490;2022-10-13T07:44:07;12.20;99.90
56861;DHT22;42744;51.094;3.490;2022-10-13T07:46:33;12.20;99.90
56861;DHT22;42744;51.094;3.490;2022-10-13T07:48:59;12.20;99.90
56861;DHT22;42744;51.094;3.490;2022-10-13T07:51:25;12.20;99.90
56861;DHT22;42744;51.094;3.490;2022-10-13T07:53:51;12.30;99.90
56861;DHT22;42744;51.094;3.490;2022-10-13T07:56:17;12.30;99.90
56861;DHT22;42744;51.094;3.490;2022-10-13T07:58:45;12.40;99.90
56861;DHT22;42744;51.094;3.490;2022-10-13T08:01:12;12.40;99.90
56861;DHT22;42744;51.094;3.490;2022-10-13T08:03:39;12.50;99.90
56861;DHT22;42744;51.094;3.490;2022-10-13T08:06:08;12.50;99.90
56861;DHT22;42744;51.094;3.490;2022-10-13T08:08:35;12.50;99.90
56861;DHT22;42744;51.094;3.490;2022-10-13T08:11:03;12.60;99.90
56861;DHT22;42744;51.094;3.490;2022-10-13T08:13:31;12.60;99.90
56861;DHT22;42744;51.094;3.490;2022-10-13T08:16:03;12.60;99.90
56861;DHT22;42744;51.094;3.490;2022-10-13T08:18:30;12.60;99.90
56861;DHT22;42744;51.094;3.490;2022-10-13T08:21:00;12.60;99.90
56861;DHT22;42744;51.094;3.490;2022-10-13T08:23:26;12.60;99.90
56861;DHT22;42744;51.094;3.490;2022-10-13T08:25:52;12.60;99.90
56861;DHT22;42744;51.094;3.490;2022-10-13T08:28:23;12.70;99.90
56861;DHT22;42744;51.094;3.490;2022-10-13T08:30:50;12.70;99.90
56861;DHT22;42744;51.094;3.490;2022-10-13T08:33:18;12.80;99.90
56861;DHT22;42744;51.094;3.490;2022-10-13T08:35:45;12.80;99.90
56861;DHT22;42744;51.094;3.490;2022-10-13T08:38:11;12.70;99.90
56861;DHT22;42744;51.094;3.490;2022-10-13T08:40:38;12.80;99.90
56861;DHT22;42744;51.094;3.490;2022-10-13T08:43:07;12.70;99.90
56861;DHT22;42744;51.094;3.490;2022-10-13T08:45:37;12.80;99.90
56861;DHT22;42744;51.094;3.490;2022-10-13T08:48:14;12.80;99.90
56861;DHT22;42744;51.094;3.490;2022-10-13T08:50:43;12.80;99.90
56861;DHT22;42744;51.094;3.490;2022-10-13T08:53:39;12.70;99.90
56861;DHT22;42744;51.094;3.490;2022-10-13T08:56:06;12.80;99.90
56861;DHT22;42744;51.094;3.490;2022-10-13T08:58:36;12.80;99.90
56861;DHT22;42744;51.094;3.490;2022-10-13T09:01:09;12.80;99.90
56861;DHT22;42744;51.094;3.490;2022-10-13T09:04:12;12.90;99.90
56861;DHT22;42744;51.094;3.490;2022-10-13T09:06:49;12.90;99.90
56861;DHT22;42744;51.094;3.490;2022-10-13T09:09:18;12.90;99.90
56861;DHT22;42744;51.094;3.490;2022-10-13T09:11:46;12.90;99.90
56861;DHT22;42744;51.094;3.490;2022-10-13T09:16:55;13.00;99.90
56861;DHT22;42744;51.094;3.490;2022-10-13T09:19:29;13.00;99.90
56861;DHT22;42744;51.094;3.490;2022-10-13T09:24:44;13.10;99.90
56861;DHT22;42744;51.094;3.490;2022-10-13T09:27:14;13.10;99.90
56861;DHT22;42744;51.094;3.490;2022-10-13T09:29:41;13.10;99.90
56861;DHT22;42744;51.094;3.490;2022-10-13T09:32:19;13.10;99.90
56861;DHT22;42744;51.094;3.490;2022-10-13T09:34:47;13.10;99.90
56861;DHT22;42744;51.094;3.490;2022-10-13T09:39:44;13.20;99.90
56861;DHT22;42744;51.094;3.490;2022-10-13T09:42:26;13.30;99.90
56861;DHT22;42744;51.094;3.490;2022-10-13T09:45:16;13.30;99.90
56861;DHT22;42744;51.094;3.490;2022-10-13T09:47:52;13.30;99.90
56861;DHT22;42744;51.094;3.490;2022-10-13T09:50:27;13.40;99.90
56861;DHT22;42744;51.094;3.490;2022-10-13T09:53:14;13.50;99.90
56861;DHT22;42744;51.094;3.490;2022-10-13T09:55:42;13.60;99.90
56861;DHT22;42744;51.094;3.490;2022-10-13T09:58:20;13.80;99.90
56861;DHT22;42744;51.094;3.490;2022-10-13T10:00:50;13.90;99.90
56861;DHT22;42744;51.094;3.490;2022-10-13T10:08:40;14.30;99.90
56861;DHT22;42744;51.094;3.490;2022-10-13T10:11:17;14.30;99.90
56861;DHT22;42744;51.094;3.490;2022-10-13T10:13:44;14.20;99.90
56861;DHT22;42744;51.094;3.490;2022-10-13T10:16:18;14.30;99.90
56861;DHT22;42744;51.094;3.490;2022-10-13T10:18:52;14.30;99.90
56861;DHT22;42744;51.094;3.490;2022-10-13T10:24:19;14.40;99.90
56861;DHT22;42744;51.094;3.490;2022-10-13T10:27:07;14.30;99.90
56861;DHT22;42744;51.094;3.490;2022-10-13T10:35:12;14.30;99.90
56861;DHT22;42744;51.094;3.490;2022-10-13T10:37:55;14.40;99.90
56861;DHT22;42744;51.094;3.490;2022-10-13T10:40:31;14.40;99.90
56861;DHT22;42744;51.094;3.490;2022-10-13T10:45:32;14.60;99.90
56861;DHT22;42744;51.094;3.490;2022-10-13T10:48:02;14.60;99.90
56861;DHT22;42744;51.094;3.490;2022-10-13T10:50:30;14.60;99.90
56861;DHT22;42744;51.094;3.490;2022-10-13T10:55:41;14.60;99.90
56861;DHT22;42744;51.094;3.490;2022-10-13T10:58:32;14.70;99.90
56861;DHT22;42744;51.094;3.490;2022-10-13T11:01:57;14.70;99.90
56861;DHT22;42744;51.094;3.490;2022-10-13T11:03:55;14.70;99.90
56861;DHT22;42744;51.094;3.490;2022-10-13T11:06:34;14.70;99.90
56861;DHT22;42744;51.094;3.490;2022-10-13T11:09:02;14.60;99.90
56861;DHT22;42744;51.094;3.490;2022-10-13T11:11:29;14.60;99.90
56861;DHT22;42744;51.094;3.490;2022-10-13T11:14:16;14.60;99.90
56861;DHT22;42744;51.094;3.490;2022-10-13T11:19:36;14.60;99.90
56861;DHT22;42744;51.094;3.490;2022-10-13T11:40:34;14.70;99.90
56861;DHT22;42744;51.094;3.490;2022-10-13T11:43:14;14.70;99.90
56861;DHT22;42744;51.094;3.490;2022-10-13T11:46:06;14.60;99.90
56861;DHT22;42744;51.094;3.490;2022-10-13T11:52:16;14.70;99.90
56861;DHT22;42744;51.094;3.490;2022-10-13T11:55:08;14.80;99.90
56861;DHT22;42744;51.094;3.490;2022-10-13T11:57:35;14.80;99.90
56861;DHT22;42744;51.094;3.490;2022-10-13T12:00:02;14.80;99.90
56861;DHT22;42744;51.094;3.490;2022-10-13T12:02:50;14.80;99.90
56861;DHT22;42744;51.094;3.490;2022-10-13T12:05:26;14.80;99.90
56861;DHT22;42744;51.094;3.490;2022-10-13T12:07:55;14.80;99.90
56861;DHT22;42744;51.094;3.490;2022-10-13T12:10:33;14.80;99.90
56861;DHT22;42744;51.094;3.490;2022-10-13T12:13:02;14.80;99.90
56861;DHT22;42744;51.094;3.490;2022-10-13T12:17:55;14.70;99.90
56861;DHT22;42744;51.094;3.490;2022-10-13T12:20:31;14.70;99.90
56861;DHT22;42744;51.094;3.490;2022-10-13T12:22:58;14.70;99.90
56861;DHT22;42744;51.094;3.490;2022-10-13T12:25:27;14.60;99.90
56861;DHT22;42744;51.094;3.490;2022-10-13T12:27:58;14.60;99.90
56861;DHT22;42744;51.094;3.490;2022-10-13T12:30:30;14.50;99.90
56861;DHT22;42744;51.094;3.490;2022-10-13T12:33:00;14.40;99.90
56861;DHT22;42744;51.094;3.490;2022-10-13T12:35:29;14.50;99.90
56861;DHT22;42744;51.094;3.490;2022-10-13T12:37:59;14.40;99.90
56861;DHT22;42744;51.094;3.490;2022-10-13T12:40:26;14.40;99.90
56861;DHT22;42744;51.094;3.490;2022-10-13T12:42:53;14.40;99.90
56861;DHT22;42744;51.094;3.490;2022-10-13T12:45:23;14.40;99.90
56861;DHT22;42744;51.094;3.490;2022-10-13T12:47:53;14.30;99.90
56861;DHT22;42744;51.094;3.490;2022-10-13T12:53:02;14.40;99.90
56861;DHT22;42744;51.094;3.490;2022-10-13T12:55:28;14.40;99.90
56861;DHT22;42744;51.094;3.490;2022-10-13T12:57:56;14.40;99.90
56861;DHT22;42744;51.094;3.490;2022-10-13T13:00:27;14.40;99.90
56861;DHT22;42744;51.094;3.490;2022-10-13T13:02:59;14.40;99.90
56861;DHT22;42744;51.094;3.490;2022-10-13T13:05:41;14.40;99.90
56861;DHT22;42744;51.094;3.490;2022-10-13T13:08:29;14.40;99.90
56861;DHT22;42744;51.094;3.490;2022-10-13T13:11:01;14.40;99.90
56861;DHT22;42744;51.094;3.490;2022-10-13T13:13:28;14.50;99.90
56861;DHT22;42744;51.094;3.490;2022-10-13T13:16:19;14.50;99.90
56861;DHT22;42744;51.094;3.490;2022-10-13T13:18:47;14.50;99.90
56861;DHT22;42744;51.094;3.490;2022-10-13T13:21:16;14.50;99.90
56861;DHT22;42744;51.094;3.490;2022-10-13T13:23:44;14.50;99.90
56861;DHT22;42744;51.094;3.490;2022-10-13T13:26:20;14.50;99.90
56861;DHT22;42744;51.094;3.490;2022-10-13T13:28:55;14.50;99.90
56861;DHT22;42744;51.094;3.490;2022-10-13T13:31:23;14.50;99.90
56861;DHT22;42744;51.094;3.490;2022-10-13T13:33:51;14.50;99.90
56861;DHT22;42744;51.094;3.490;2022-10-13T13:36:24;14.50;99.90
56861;DHT22;42744;51.094;3.490;2022-10-13T13:38:51;14.50;99.90
56861;DHT22;42744;51.094;3.490;2022-10-13T13:41:18;14.50;99.90
56861;DHT22;42744;51.094;3.490;2022-10-13T13:43:44;14.50;99.90
56861;DHT22;42744;51.094;3.490;2022-10-13T13:46:22;14.50;99.90
56861;DHT22;42744;51.094;3.490;2022-10-13T13:48:48;14.50;99.90
56861;DHT22;42744;51.094;3.490;2022-10-13T13:51:15;14.50;99.90
56861;DHT22;42744;51.094;3.490;2022-10-13T13:53:43;14.50;99.90
56861;DHT22;42744;51.094;3.490;2022-10-13T13:56:13;14.50;99.90
56861;DHT22;42744;51.094;3.490;2022-10-13T13:58:40;14.50;99.90
56861;DHT22;42744;51.094;3.490;2022-10-13T14:01:06;14.50;99.90
56861;DHT22;42744;51.094;3.490;2022-10-13T14:03:32;14.50;99.90
56861;DHT22;42744;51.094;3.490;2022-10-13T14:05:58;14.50;99.90
56861;DHT22;42744;51.094;3.490;2022-10-13T14:08:24;14.50;99.90
56861;DHT22;42744;51.094;3.490;2022-10-13T14:10:50;14.50;99.90
56861;DHT22;42744;51.094;3.490;2022-10-13T14:13:17;14.50;99.90
56861;DHT22;42744;51.094;3.490;2022-10-13T14:15:42;14.50;99.90
56861;DHT22;42744;51.094;3.490;2022-10-13T14:18:09;14.50;99.90
56861;DHT22;42744;51.094;3.490;2022-10-13T14:20:38;14.50;99.90
56861;DHT22;42744;51.094;3.490;2022-10-13T14:23:04;14.50;99.90
56861;DHT22;42744;51.094;3.490;2022-10-13T14:25:31;14.50;99.90
56861;DHT22;42744;51.094;3.490;2022-10-13T14:27:57;14.50;99.90
56861;DHT22;42744;51.094;3.490;2022-10-13T14:30:23;14.50;99.90
56861;DHT22;42744;51.094;3.490;2022-10-13T14:32:49;14.40;99.90
56861;DHT22;42744;51.094;3.490;2022-10-13T14:35:15;14.40;99.90
56861;DHT22;42744;51.094;3.490;2022-10-13T14:37:41;14.40;99.90
56861;DHT22;42744;51.094;3.490;2022-10-13T14:40:08;14.40;99.90
56861;DHT22;42744;51.094;3.490;2022-10-13T14:42:34;14.40;99.90
56861;DHT22;42744;51.094;3.490;2022-10-13T14:45:03;14.40;99.90
56861;DHT22;42744;51.094;3.490;2022-10-13T14:47:31;14.40;99.90
56861;DHT22;42744;51.094;3.490;2022-10-13T14:49:57;14.40;99.90
56861;DHT22;42744;51.094;3.490;2022-10-13T14:52:23;14.40;99.90
56861;DHT22;42744;51.094;3.490;2022-10-13T14:54:49;14.40;99.90
56861;DHT22;42744;51.094;3.490;2022-10-13T14:57:15;14.40;99.90
56861;DHT22;42744;51.094;3.490;2022-10-13T14:59:40;14.40;99.90
56861;DHT22;42744;51.094;3.490;2022-10-13T15:02:09;14.30;99.90
56861;DHT22;42744;51.094;3.490;2022-10-13T15:04:35;14.30;99.90
56861;DHT22;42744;51.094;3.490;2022-10-13T15:07:01;14.30;99.90
56861;DHT22;42744;51.094;3.490;2022-10-13T15:09:28;14.30;99.90
56861;DHT22;42744;51.094;3.490;2022-10-13T15:11:54;14.30;99.90
56861;DHT22;42744;51.094;3.490;2022-10-13T15:14:20;14.20;99.90
56861;DHT22;42744;51.094;3.490;2022-10-13T15:16:46;14.20;99.90
56861;DHT22;42744;51.094;3.490;2022-10-13T15:19:12;14.20;99.90
56861;DHT22;42744;51.094;3.490;2022-10-13T15:21:39;14.20;99.90
56861;DHT22;42744;51.094;3.490;2022-10-13T15:24:06;14.20;99.90
56861;DHT22;42744;51.094;3.490;2022-10-13T15:26:32;14.20;99.90
56861;DHT22;42744;51.094;3.490;2022-10-13T15:28:59;14.20;99.90
56861;DHT22;42744;51.094;3.490;2022-10-13T15:31:25;14.10;99.90
56861;DHT22;42744;51.094;3.490;2022-10-13T15:33:52;14.10;99.90
56861;DHT22;42744;51.094;3.490;2022-10-13T15:36:20;14.10;99.90
56861;DHT22;42744;51.094;3.490;2022-10-13T15:38:46;14.20;99.90
56861;DHT22;42744;51.094;3.490;2022-10-13T15:41:13;14.20;99.90
56861;DHT22;42744;51.094;3.490;2022-10-13T15:43:39;14.10;99.90
56861;DHT22;42744;51.094;3.490;2022-10-13T15:46:07;14.10;99.90
56861;DHT22;42744;51.094;3.490;2022-10-13T15:48:34;14.10;99.90
56861;DHT22;42744;51.094;3.490;2022-10-13T15:51:01;14.10;99.90
56861;DHT22;42744;51.094;3.490;2022-10-13T15:53:29;14.10;99.90
56861;DHT22;42744;51.094;3.490;2022-10-13T15:55:55;14.10;99.90
56861;DHT22;42744;51.094;3.490;2022-10-13T15:58:21;14.10;99.90
56861;DHT22;42744;51.094;3.490;2022-10-13T16:00:47;14.10;99.90
56861;DHT22;42744;51.094;3.490;2022-10-13T16:03:15;14.10;99.90
56861;DHT22;42744;51.094;3.490;2022-10-13T16:05:42;14.00;99.90
56861;DHT22;42744;51.094;3.490;2022-10-13T16:08:09;14.00;99.90
56861;DHT22;42744;51.094;3.490;2022-10-13T16:10:39;14.00;99.90
56861;DHT22;42744;51.094;3.490;2022-10-13T16:13:06;14.00;99.90
56861;DHT22;42744;51.094;3.490;2022-10-13T16:15:32;14.00;99.90
56861;DHT22;42744;51.094;3.490;2022-10-13T16:17:58;14.00;99.90
56861;DHT22;42744;51.094;3.490;2022-10-13T16:20:24;14.00;99.90
56861;DHT22;42744;51.094;3.490;2022-10-13T16:22:52;14.00;99.90
56861;DHT22;42744;51.094;3.490;2022-10-13T16:25:18;14.00;99.90
56861;DHT22;42744;51.094;3.490;2022-10-13T16:27:44;14.00;99.90
56861;DHT22;42744;51.094;3.490;2022-10-13T16:30:11;14.00;99.90
56861;DHT22;42744;51.094;3.490;2022-10-13T16:32:38;14.00;99.90
56861;DHT22;42744;51.094;3.490;2022-10-13T16:35:05;14.00;99.90
56861;DHT22;42744;51.094;3.490;2022-10-13T16:37:31;13.90;99.90
56861;DHT22;42744;51.094;3.490;2022-10-13T16:39:58;13.90;99.90
56861;DHT22;42744;51.094;3.490;2022-10-13T16:42:24;13.90;99.90
56861;DHT22;42744;51.094;3.490;2022-10-13T16:44:50;13.90;99.90
56861;DHT22;42744;51.094;3.490;2022-10-13T16:47:16;13.90;99.90
56861;DHT22;42744;51.094;3.490;2022-10-13T16:49:42;13.90;99.90
56861;DHT22;42744;51.094;3.490;2022-10-13T16:52:08;13.90;99.90
56861;DHT22;42744;51.094;3.490;2022-10-13T16:54:35;14.00;99.90
56861;DHT22;42744;51.094;3.490;2022-10-13T16:57:01;13.90;99.90
56861;DHT22;42744;51.094;3.490;2022-10-13T16:59:27;13.90;99.90
56861;DHT22;42744;51.094;3.490;2022-10-13T17:01:53;13.90;99.90